Lusby, MD

1:07 PM EDT on September 22, 2014 (GMT -0400)
APRSWXNET Lusby MD US | Change Station
CLOSE
Current Station
Personal Weather Station
Location: Lusby, MD
Elevation: 115 ft
Nearby Weather Stations

Elev 115 ft 38.37 °N, 76.41 °W | Updated 37 minutes ago

Partly Cloudy
Partly Cloudy
72 °F
Feels Like 77 °F
N
3
Wind Variable Wind from WSW
Gusts 11.0 mph

Today
High -- | Low -- °F
--% Chance of Precip.
Yesterday
High -- | Low -- °F
Precip. -- in
6:53 AM 7:02 PM
Waning Crescent, 2% visible
Pressure 30.01 in
Visibility 10.0 miles
Clouds Few 4900 ft
Few 25000 ft
Heat Index 77 °F
Dew Point 53 °F
Humidity 52%
Rainfall 0.00 in
Snow Depth Not available.
UV 7 out of 12
Pollen 4.80 out of 12
Air Quality Not available.
Flu Activity Not available.
METAR KNHK 221652Z 32016KT 10SM FEW049 FEW250 23/09 A3001 RMK AO2 SLP161 T02330089

More Conditions Fewer Conditions

Pressure 30.01 in
Visibility 10.0 miles
Clouds Few 4900 ft
Few 25000 ft
Heat Index 77 °F
Dew Point 53 °F
Humidity 52%
Rainfall 0.00 in
Snow Depth Not available.
UV 7 out of 12
Pollen 4.80 out of 12
Air Quality Not available.
Flu Activity Not available.
METAR KNHK 221652Z 32016KT 10SM FEW049 FEW250 23/09 A3001 RMK AO2 SLP161 T02330089

More Conditions Fewer Conditions

10-Day Weather Forecast

Almanac

Astronomy

Sep. 22, 2014 Rise Set
Actual Time 6:53 AM EDT 7:02 PM EDT
Civil Twilight 6:27 AM EDT 7:29 PM EDT
Nautical Twilight 5:56 AM EDT 7:59 PM EDT
Astronomical Twilight 5:24 AM EDT 8:31 PM EDT
Moon 5:20 AM EDT 6:08 PM EDT
Length of Visible Light 13h 02m
Length of Day
12h 09m
Tomorrow will be 2m 28s shorter.
Waning Crescent, 2% of the Moon is Illuminated
Today
Waning Crescent
Sep 24
New
Oct 1
First Quarter
Oct 8
Full
Oct 15
Last Quarter

Today's Extremes

State Highs State Lows

Community

WunderPhotos

Upload Photos

1,755,487 photos uploaded!

WunderBlogs® & News

Nearby

Snow Depth

Station Depth Elevation
No new snow has been reported.

Earthquake Activity

City Distance Mag. Time & Date
No recent earthquake activity has been reported nearby.
Minimum magnitude displayed is 2.5.

Coastal Water Temperatures

Place Temperature
Solomons Island, MD 75.0 °F
Cambridge, MD 73.0 °F

Nearby Weather Stations